sensor_id;sensor_type;location;lat;lon;timestamp;P1;durP1;ratioP1;P2;durP2;ratioP2
57055;SDS011;42945;51.718;5.324;2023-12-28T00:01:21;3.75;;;2.05;;
57055;SDS011;42945;51.718;5.324;2023-12-28T00:03:47;5.47;;;2.03;;
57055;SDS011;42945;51.718;5.324;2023-12-28T00:06:13;3.97;;;2.30;;
57055;SDS011;42945;51.718;5.324;2023-12-28T00:08:38;4.50;;;1.98;;
57055;SDS011;42945;51.718;5.324;2023-12-28T00:11:05;2.95;;;2.00;;
57055;SDS011;42945;51.718;5.324;2023-12-28T00:13:30;3.85;;;1.98;;
57055;SDS011;42945;51.718;5.324;2023-12-28T00:15:56;6.25;;;2.00;;
57055;SDS011;42945;51.718;5.324;2023-12-28T00:18:21;6.93;;;2.45;;
57055;SDS011;42945;51.718;5.324;2023-12-28T00:20:47;5.85;;;2.42;;
57055;SDS011;42945;51.718;5.324;2023-12-28T00:23:12;6.72;;;2.83;;
57055;SDS011;42945;51.718;5.324;2023-12-28T00:25:37;4.75;;;2.00;;
57055;SDS011;42945;51.718;5.324;2023-12-28T00:28:03;4.90;;;2.08;;
57055;SDS011;42945;51.718;5.324;2023-12-28T00:30:29;6.38;;;2.08;;
57055;SDS011;42945;51.718;5.324;2023-12-28T00:32:54;4.00;;;2.10;;
57055;SDS011;42945;51.718;5.324;2023-12-28T00:35:20;6.95;;;2.28;;
57055;SDS011;42945;51.718;5.324;2023-12-28T00:37:45;5.85;;;2.30;;
57055;SDS011;42945;51.718;5.324;2023-12-28T00:40:14;3.15;;;2.10;;
57055;SDS011;42945;51.718;5.324;2023-12-28T00:42:39;5.15;;;2.53;;
57055;SDS011;42945;51.718;5.324;2023-12-28T00:45:06;5.90;;;2.25;;
57055;SDS011;42945;51.718;5.324;2023-12-28T00:47:32;4.47;;;2.03;;
57055;SDS011;42945;51.718;5.324;2023-12-28T00:49:57;3.20;;;2.20;;
57055;SDS011;42945;51.718;5.324;2023-12-28T00:52:23;5.32;;;2.10;;
57055;SDS011;42945;51.718;5.324;2023-12-28T00:54:48;5.97;;;2.17;;
57055;SDS011;42945;51.718;5.324;2023-12-28T00:57:14;4.90;;;2.35;;
57055;SDS011;42945;51.718;5.324;2023-12-28T00:59:39;3.08;;;2.05;;
57055;SDS011;42945;51.718;5.324;2023-12-28T01:02:04;8.90;;;2.85;;
57055;SDS011;42945;51.718;5.324;2023-12-28T01:04:29;6.45;;;2.50;;
57055;SDS011;42945;51.718;5.324;2023-12-28T01:06:55;4.05;;;2.38;;
57055;SDS011;42945;51.718;5.324;2023-12-28T01:09:20;6.55;;;2.45;;
57055;SDS011;42945;51.718;5.324;2023-12-28T01:11:45;4.45;;;2.10;;
57055;SDS011;42945;51.718;5.324;2023-12-28T01:14:11;4.55;;;2.80;;
57055;SDS011;42945;51.718;5.324;2023-12-28T01:16:36;4.50;;;2.33;;
57055;SDS011;42945;51.718;5.324;2023-12-28T01:19:04;5.93;;;2.40;;
57055;SDS011;42945;51.718;5.324;2023-12-28T01:21:30;5.95;;;2.33;;
57055;SDS011;42945;51.718;5.324;2023-12-28T01:23:55;4.78;;;2.55;;
57055;SDS011;42945;51.718;5.324;2023-12-28T01:26:20;5.30;;;2.70;;
57055;SDS011;42945;51.718;5.324;2023-12-28T01:28:46;6.13;;;2.28;;
57055;SDS011;42945;51.718;5.324;2023-12-28T01:31:11;3.78;;;2.30;;
57055;SDS011;42945;51.718;5.324;2023-12-28T01:33:37;6.68;;;2.50;;
57055;SDS011;42945;51.718;5.324;2023-12-28T01:36:02;4.05;;;2.78;;
57055;SDS011;42945;51.718;5.324;2023-12-28T01:38:27;7.80;;;2.50;;
57055;SDS011;42945;51.718;5.324;2023-12-28T01:40:53;5.80;;;2.67;;
57055;SDS011;42945;51.718;5.324;2023-12-28T01:43:18;9.88;;;2.45;;
57055;SDS011;42945;51.718;5.324;2023-12-28T01:45:44;4.72;;;3.05;;
57055;SDS011;42945;51.718;5.324;2023-12-28T01:48:10;4.68;;;2.45;;
57055;SDS011;42945;51.718;5.324;2023-12-28T01:50:36;7.03;;;2.72;;
57055;SDS011;42945;51.718;5.324;2023-12-28T01:53:02;7.72;;;2.67;;
57055;SDS011;42945;51.718;5.324;2023-12-28T01:55:28;4.63;;;1.75;;
57055;SDS011;42945;51.718;5.324;2023-12-28T01:57:55;7.60;;;2.60;;
57055;SDS011;42945;51.718;5.324;2023-12-28T02:00:22;5.35;;;2.22;;
57055;SDS011;42945;51.718;5.324;2023-12-28T02:02:47;5.57;;;2.40;;
57055;SDS011;42945;51.718;5.324;2023-12-28T02:05:13;7.32;;;2.60;;
57055;SDS011;42945;51.718;5.324;2023-12-28T02:07:39;6.80;;;2.63;;
57055;SDS011;42945;51.718;5.324;2023-12-28T02:10:06;4.47;;;2.42;;
57055;SDS011;42945;51.718;5.324;2023-12-28T02:12:32;3.85;;;2.33;;
57055;SDS011;42945;51.718;5.324;2023-12-28T02:14:57;5.18;;;2.17;;
57055;SDS011;42945;51.718;5.324;2023-12-28T02:17:28;4.40;;;2.13;;
57055;SDS011;42945;51.718;5.324;2023-12-28T02:20:02;5.97;;;2.13;;
57055;SDS011;42945;51.718;5.324;2023-12-28T02:22:31;9.60;;;2.67;;
57055;SDS011;42945;51.718;5.324;2023-12-28T02:27:26;6.95;;;2.15;;
57055;SDS011;42945;51.718;5.324;2023-12-28T02:29:53;7.65;;;2.03;;
57055;SDS011;42945;51.718;5.324;2023-12-28T02:32:22;5.05;;;2.20;;
57055;SDS011;42945;51.718;5.324;2023-12-28T02:34:56;10.38;;;2.83;;
57055;SDS011;42945;51.718;5.324;2023-12-28T02:37:26;6.65;;;2.35;;
57055;SDS011;42945;51.718;5.324;2023-12-28T02:39:55;5.80;;;2.05;;
57055;SDS011;42945;51.718;5.324;2023-12-28T02:42:20;9.43;;;2.08;;
57055;SDS011;42945;51.718;5.324;2023-12-28T02:44:46;7.05;;;2.30;;
57055;SDS011;42945;51.718;5.324;2023-12-28T02:47:11;5.32;;;2.30;;
57055;SDS011;42945;51.718;5.324;2023-12-28T02:49:36;5.15;;;1.95;;
57055;SDS011;42945;51.718;5.324;2023-12-28T02:52:02;8.45;;;2.00;;
57055;SDS011;42945;51.718;5.324;2023-12-28T02:54:27;5.78;;;2.00;;
57055;SDS011;42945;51.718;5.324;2023-12-28T02:56:53;6.78;;;2.58;;
57055;SDS011;42945;51.718;5.324;2023-12-28T02:59:18;7.32;;;2.13;;
57055;SDS011;42945;51.718;5.324;2023-12-28T03:01:44;9.25;;;2.33;;
57055;SDS011;42945;51.718;5.324;2023-12-28T03:04:09;5.25;;;1.70;;
57055;SDS011;42945;51.718;5.324;2023-12-28T03:06:34;9.10;;;2.25;;
57055;SDS011;42945;51.718;5.324;2023-12-28T03:09:00;6.25;;;2.10;;
57055;SDS011;42945;51.718;5.324;2023-12-28T03:11:25;8.45;;;2.10;;
57055;SDS011;42945;51.718;5.324;2023-12-28T03:13:51;11.27;;;2.10;;
57055;SDS011;42945;51.718;5.324;2023-12-28T03:16:16;6.85;;;1.83;;
57055;SDS011;42945;51.718;5.324;2023-12-28T03:18:41;6.38;;;1.80;;
57055;SDS011;42945;51.718;5.324;2023-12-28T03:21:06;5.15;;;2.00;;
57055;SDS011;42945;51.718;5.324;2023-12-28T03:23:32;15.23;;;2.40;;
57055;SDS011;42945;51.718;5.324;2023-12-28T03:25:57;6.70;;;1.65;;
57055;SDS011;42945;51.718;5.324;2023-12-28T03:28:22;9.77;;;2.20;;
57055;SDS011;42945;51.718;5.324;2023-12-28T03:30:48;8.40;;;1.90;;
57055;SDS011;42945;51.718;5.324;2023-12-28T03:33:13;8.35;;;1.73;;
57055;SDS011;42945;51.718;5.324;2023-12-28T03:35:38;8.73;;;2.10;;
57055;SDS011;42945;51.718;5.324;2023-12-28T03:38:03;7.85;;;2.40;;
57055;SDS011;42945;51.718;5.324;2023-12-28T03:40:29;5.47;;;1.92;;
57055;SDS011;42945;51.718;5.324;2023-12-28T03:42:54;6.97;;;1.67;;
57055;SDS011;42945;51.718;5.324;2023-12-28T03:45:19;9.68;;;1.77;;
57055;SDS011;42945;51.718;5.324;2023-12-28T03:47:45;9.43;;;2.58;;
57055;SDS011;42945;51.718;5.324;2023-12-28T03:50:10;7.05;;;2.30;;
57055;SDS011;42945;51.718;5.324;2023-12-28T03:52:35;7.80;;;1.90;;
57055;SDS011;42945;51.718;5.324;2023-12-28T03:55:01;8.68;;;1.77;;
57055;SDS011;42945;51.718;5.324;2023-12-28T03:57:26;5.85;;;2.20;;
57055;SDS011;42945;51.718;5.324;2023-12-28T03:59:51;5.28;;;1.65;;
57055;SDS011;42945;51.718;5.324;2023-12-28T04:02:18;9.95;;;2.03;;
57055;SDS011;42945;51.718;5.324;2023-12-28T04:04:44;8.95;;;2.20;;
57055;SDS011;42945;51.718;5.324;2023-12-28T04:07:09;10.60;;;2.05;;
57055;SDS011;42945;51.718;5.324;2023-12-28T04:09:35;5.78;;;1.52;;
57055;SDS011;42945;51.718;5.324;2023-12-28T04:12:00;10.15;;;2.10;;
57055;SDS011;42945;51.718;5.324;2023-12-28T04:14:26;9.65;;;1.90;;
57055;SDS011;42945;51.718;5.324;2023-12-28T04:16:51;8.00;;;2.42;;
57055;SDS011;42945;51.718;5.324;2023-12-28T04:19:16;7.82;;;1.98;;
57055;SDS011;42945;51.718;5.324;2023-12-28T04:21:45;10.73;;;1.98;;
57055;SDS011;42945;51.718;5.324;2023-12-28T04:24:10;13.07;;;2.47;;
57055;SDS011;42945;51.718;5.324;2023-12-28T04:26:35;9.30;;;1.88;;
57055;SDS011;42945;51.718;5.324;2023-12-28T04:29:02;11.05;;;2.42;;
57055;SDS011;42945;51.718;5.324;2023-12-28T04:31:27;11.15;;;1.77;;
57055;SDS011;42945;51.718;5.324;2023-12-28T04:33:53;8.00;;;1.55;;
57055;SDS011;42945;51.718;5.324;2023-12-28T04:36:18;10.30;;;2.13;;
57055;SDS011;42945;51.718;5.324;2023-12-28T04:38:44;13.23;;;2.47;;
57055;SDS011;42945;51.718;5.324;2023-12-28T04:41:10;8.52;;;1.67;;
57055;SDS011;42945;51.718;5.324;2023-12-28T04:43:36;13.02;;;2.03;;
57055;SDS011;42945;51.718;5.324;2023-12-28T04:46:04;8.55;;;1.75;;
57055;SDS011;42945;51.718;5.324;2023-12-28T04:48:30;12.15;;;2.25;;
57055;SDS011;42945;51.718;5.324;2023-12-28T04:50:56;11.85;;;1.90;;
57055;SDS011;42945;51.718;5.324;2023-12-28T04:53:21;10.75;;;2.13;;
57055;SDS011;42945;51.718;5.324;2023-12-28T04:55:47;10.25;;;2.40;;
57055;SDS011;42945;51.718;5.324;2023-12-28T04:58:12;7.78;;;1.90;;
57055;SDS011;42945;51.718;5.324;2023-12-28T05:00:38;9.45;;;2.08;;
57055;SDS011;42945;51.718;5.324;2023-12-28T05:03:03;6.93;;;1.80;;
57055;SDS011;42945;51.718;5.324;2023-12-28T05:05:29;5.85;;;1.58;;
57055;SDS011;42945;51.718;5.324;2023-12-28T05:07:55;7.97;;;1.95;;
57055;SDS011;42945;51.718;5.324;2023-12-28T05:10:20;15.02;;;2.20;;
57055;SDS011;42945;51.718;5.324;2023-12-28T05:12:46;10.50;;;1.88;;
57055;SDS011;42945;51.718;5.324;2023-12-28T05:15:11;14.07;;;1.75;;
57055;SDS011;42945;51.718;5.324;2023-12-28T05:17:37;10.57;;;1.80;;
57055;SDS011;42945;51.718;5.324;2023-12-28T05:23:24;13.20;;;2.95;;
57055;SDS011;42945;51.718;5.324;2023-12-28T05:25:49;10.52;;;2.28;;
57055;SDS011;42945;51.718;5.324;2023-12-28T05:28:14;12.60;;;2.00;;
57055;SDS011;42945;51.718;5.324;2023-12-28T05:30:40;13.05;;;2.33;;
57055;SDS011;42945;51.718;5.324;2023-12-28T05:33:05;16.75;;;2.65;;
57055;SDS011;42945;51.718;5.324;2023-12-28T05:35:30;10.43;;;2.05;;
57055;SDS011;42945;51.718;5.324;2023-12-28T05:37:56;13.43;;;1.83;;
57055;SDS011;42945;51.718;5.324;2023-12-28T05:40:21;10.07;;;1.70;;
57055;SDS011;42945;51.718;5.324;2023-12-28T05:42:46;12.15;;;1.67;;
57055;SDS011;42945;51.718;5.324;2023-12-28T05:45:11;9.95;;;1.77;;
57055;SDS011;42945;51.718;5.324;2023-12-28T05:47:37;10.35;;;2.20;;
57055;SDS011;42945;51.718;5.324;2023-12-28T05:50:02;10.95;;;2.25;;
57055;SDS011;42945;51.718;5.324;2023-12-28T05:52:30;19.73;;;2.50;;
57055;SDS011;42945;51.718;5.324;2023-12-28T05:54:56;10.63;;;1.90;;
57055;SDS011;42945;51.718;5.324;2023-12-28T05:57:21;9.10;;;2.00;;
57055;SDS011;42945;51.718;5.324;2023-12-28T05:59:47;8.77;;;1.52;;
57055;SDS011;42945;51.718;5.324;2023-12-28T06:02:12;15.65;;;2.03;;
57055;SDS011;42945;51.718;5.324;2023-12-28T06:04:37;10.23;;;2.00;;
57055;SDS011;42945;51.718;5.324;2023-12-28T06:07:03;14.80;;;2.08;;
57055;SDS011;42945;51.718;5.324;2023-12-28T06:09:29;7.82;;;1.52;;
57055;SDS011;42945;51.718;5.324;2023-12-28T06:11:55;16.02;;;2.03;;
57055;SDS011;42945;51.718;5.324;2023-12-28T06:14:20;13.63;;;2.28;;
57055;SDS011;42945;51.718;5.324;2023-12-28T06:16:46;11.90;;;1.98;;
57055;SDS011;42945;51.718;5.324;2023-12-28T06:19:11;16.10;;;2.10;;
57055;SDS011;42945;51.718;5.324;2023-12-28T06:21:37;10.40;;;1.88;;
57055;SDS011;42945;51.718;5.324;2023-12-28T06:24:03;13.20;;;2.13;;
57055;SDS011;42945;51.718;5.324;2023-12-28T06:26:28;16.33;;;2.35;;
57055;SDS011;42945;51.718;5.324;2023-12-28T06:28:54;18.55;;;2.28;;
57055;SDS011;42945;51.718;5.324;2023-12-28T06:31:19;13.85;;;2.10;;
57055;SDS011;42945;51.718;5.324;2023-12-28T06:33:45;10.88;;;1.85;;
57055;SDS011;42945;51.718;5.324;2023-12-28T06:36:11;15.68;;;2.20;;
57055;SDS011;42945;51.718;5.324;2023-12-28T06:38:37;15.82;;;2.38;;
57055;SDS011;42945;51.718;5.324;2023-12-28T06:41:09;11.70;;;2.20;;
57055;SDS011;42945;51.718;5.324;2023-12-28T06:43:36;15.02;;;2.00;;
57055;SDS011;42945;51.718;5.324;2023-12-28T06:46:01;13.80;;;2.58;;
57055;SDS011;42945;51.718;5.324;2023-12-28T06:48:26;10.55;;;1.77;;
57055;SDS011;42945;51.718;5.324;2023-12-28T06:50:52;18.50;;;2.22;;
57055;SDS011;42945;51.718;5.324;2023-12-28T06:53:17;14.27;;;2.28;;
57055;SDS011;42945;51.718;5.324;2023-12-28T06:55:42;15.00;;;2.60;;
57055;SDS011;42945;51.718;5.324;2023-12-28T06:58:08;17.05;;;2.25;;
57055;SDS011;42945;51.718;5.324;2023-12-28T07:00:33;11.90;;;1.90;;
57055;SDS011;42945;51.718;5.324;2023-12-28T07:02:58;11.82;;;2.42;;
57055;SDS011;42945;51.718;5.324;2023-12-28T07:05:23;10.13;;;2.30;;
57055;SDS011;42945;51.718;5.324;2023-12-28T07:07:49;17.25;;;3.53;;
57055;SDS011;42945;51.718;5.324;2023-12-28T07:10:14;17.63;;;2.53;;
57055;SDS011;42945;51.718;5.324;2023-12-28T07:12:40;15.57;;;2.10;;
57055;SDS011;42945;51.718;5.324;2023-12-28T07:15:05;15.65;;;1.98;;
57055;SDS011;42945;51.718;5.324;2023-12-28T07:17:31;15.93;;;2.72;;
57055;SDS011;42945;51.718;5.324;2023-12-28T07:19:56;17.30;;;2.65;;
57055;SDS011;42945;51.718;5.324;2023-12-28T07:22:21;13.55;;;2.08;;
57055;SDS011;42945;51.718;5.324;2023-12-28T07:24:47;14.13;;;1.83;;
57055;SDS011;42945;51.718;5.324;2023-12-28T07:27:12;19.75;;;1.90;;
57055;SDS011;42945;51.718;5.324;2023-12-28T07:29:37;14.18;;;1.95;;
57055;SDS011;42945;51.718;5.324;2023-12-28T07:32:03;18.67;;;2.63;;
57055;SDS011;42945;51.718;5.324;2023-12-28T07:34:29;12.75;;;2.00;;
57055;SDS011;42945;51.718;5.324;2023-12-28T07:36:54;16.75;;;2.40;;
57055;SDS011;42945;51.718;5.324;2023-12-28T07:39:19;24.25;;;2.50;;
57055;SDS011;42945;51.718;5.324;2023-12-28T07:41:45;15.82;;;2.33;;
57055;SDS011;42945;51.718;5.324;2023-12-28T07:44:10;20.08;;;2.85;;
57055;SDS011;42945;51.718;5.324;2023-12-28T07:46:35;11.52;;;1.77;;
57055;SDS011;42945;51.718;5.324;2023-12-28T07:49:00;20.10;;;2.90;;
57055;SDS011;42945;51.718;5.324;2023-12-28T07:51:26;11.70;;;2.00;;
57055;SDS011;42945;51.718;5.324;2023-12-28T07:53:51;15.43;;;2.10;;
57055;SDS011;42945;51.718;5.324;2023-12-28T07:56:16;16.67;;;2.67;;
57055;SDS011;42945;51.718;5.324;2023-12-28T07:58:41;17.52;;;2.80;;
57055;SDS011;42945;51.718;5.324;2023-12-28T08:01:10;24.80;;;3.42;;
57055;SDS011;42945;51.718;5.324;2023-12-28T08:03:36;16.02;;;2.20;;
57055;SDS011;42945;51.718;5.324;2023-12-28T08:06:01;18.70;;;2.90;;
57055;SDS011;42945;51.718;5.324;2023-12-28T08:08:27;17.05;;;2.63;;
57055;SDS011;42945;51.718;5.324;2023-12-28T08:10:52;17.25;;;2.88;;
57055;SDS011;42945;51.718;5.324;2023-12-28T08:13:17;13.18;;;2.20;;
57055;SDS011;42945;51.718;5.324;2023-12-28T08:15:43;21.27;;;2.65;;
57055;SDS011;42945;51.718;5.324;2023-12-28T08:18:08;17.85;;;2.55;;
57055;SDS011;42945;51.718;5.324;2023-12-28T08:20:37;20.08;;;2.47;;
57055;SDS011;42945;51.718;5.324;2023-12-28T08:23:02;21.05;;;2.38;;
57055;SDS011;42945;51.718;5.324;2023-12-28T08:25:27;23.48;;;2.95;;
57055;SDS011;42945;51.718;5.324;2023-12-28T08:27:53;17.08;;;2.63;;
57055;SDS011;42945;51.718;5.324;2023-12-28T08:30:18;23.02;;;2.90;;
57055;SDS011;42945;51.718;5.324;2023-12-28T08:32:44;16.70;;;2.33;;
57055;SDS011;42945;51.718;5.324;2023-12-28T08:35:09;15.40;;;2.75;;
57055;SDS011;42945;51.718;5.324;2023-12-28T08:37:34;17.92;;;2.30;;
57055;SDS011;42945;51.718;5.324;2023-12-28T08:40:00;16.88;;;2.70;;
57055;SDS011;42945;51.718;5.324;2023-12-28T08:42:25;19.73;;;2.97;;
57055;SDS011;42945;51.718;5.324;2023-12-28T08:44:50;15.82;;;2.38;;
57055;SDS011;42945;51.718;5.324;2023-12-28T08:47:16;15.98;;;2.40;;
57055;SDS011;42945;51.718;5.324;2023-12-28T08:49:42;22.75;;;2.65;;
57055;SDS011;42945;51.718;5.324;2023-12-28T08:52:07;18.02;;;2.38;;
57055;SDS011;42945;51.718;5.324;2023-12-28T08:54:33;22.27;;;2.25;;
57055;SDS011;42945;51.718;5.324;2023-12-28T08:56:58;19.92;;;2.33;;
57055;SDS011;42945;51.718;5.324;2023-12-28T08:59:23;19.30;;;2.45;;
57055;SDS011;42945;51.718;5.324;2023-12-28T09:01:49;13.50;;;2.03;;
57055;SDS011;42945;51.718;5.324;2023-12-28T09:04:17;18.67;;;3.00;;
57055;SDS011;42945;51.718;5.324;2023-12-28T09:06:43;18.65;;;2.40;;
57055;SDS011;42945;51.718;5.324;2023-12-28T09:09:08;23.95;;;2.50;;
57055;SDS011;42945;51.718;5.324;2023-12-28T09:11:34;14.40;;;2.67;;
57055;SDS011;42945;51.718;5.324;2023-12-28T09:13:59;19.35;;;2.22;;
57055;SDS011;42945;51.718;5.324;2023-12-28T09:16:24;20.38;;;2.90;;
57055;SDS011;42945;51.718;5.324;2023-12-28T09:18:50;18.58;;;2.47;;
57055;SDS011;42945;51.718;5.324;2023-12-28T09:21:15;21.77;;;2.53;;
57055;SDS011;42945;51.718;5.324;2023-12-28T09:23:40;18.08;;;1.83;;
57055;SDS011;42945;51.718;5.324;2023-12-28T09:26:06;13.95;;;2.10;;
57055;SDS011;42945;51.718;5.324;2023-12-28T09:28:32;18.45;;;2.10;;
57055;SDS011;42945;51.718;5.324;2023-12-28T09:30:58;15.05;;;2.17;;
57055;SDS011;42945;51.718;5.324;2023-12-28T09:33:23;20.73;;;2.60;;
57055;SDS011;42945;51.718;5.324;2023-12-28T09:35:49;14.10;;;2.53;;
57055;SDS011;42945;51.718;5.324;2023-12-28T09:38:14;14.77;;;2.20;;
57055;SDS011;42945;51.718;5.324;2023-12-28T09:40:43;15.50;;;2.30;;
57055;SDS011;42945;51.718;5.324;2023-12-28T09:43:21;14.93;;;2.30;;
57055;SDS011;42945;51.718;5.324;2023-12-28T09:45:49;16.75;;;2.58;;
57055;SDS011;42945;51.718;5.324;2023-12-28T09:48:18;17.80;;;2.72;;
57055;SDS011;42945;51.718;5.324;2023-12-28T09:50:45;23.17;;;2.88;;
57055;SDS011;42945;51.718;5.324;2023-12-28T09:53:14;23.15;;;2.90;;
57055;SDS011;42945;51.718;5.324;2023-12-28T09:55:39;21.45;;;2.63;;
57055;SDS011;42945;51.718;5.324;2023-12-28T09:58:05;16.77;;;2.55;;
57055;SDS011;42945;51.718;5.324;2023-12-28T10:00:31;24.00;;;3.30;;
57055;SDS011;42945;51.718;5.324;2023-12-28T10:02:57;15.07;;;2.03;;
57055;SDS011;42945;51.718;5.324;2023-12-28T10:05:22;18.45;;;2.17;;
57055;SDS011;42945;51.718;5.324;2023-12-28T10:07:48;15.63;;;2.35;;
57055;SDS011;42945;51.718;5.324;2023-12-28T10:10:14;26.42;;;3.80;;
57055;SDS011;42945;51.718;5.324;2023-12-28T10:12:39;19.83;;;3.08;;
57055;SDS011;42945;51.718;5.324;2023-12-28T10:15:05;22.48;;;3.08;;
57055;SDS011;42945;51.718;5.324;2023-12-28T10:17:34;16.88;;;2.50;;
57055;SDS011;42945;51.718;5.324;2023-12-28T10:20:00;19.27;;;2.45;;
57055;SDS011;42945;51.718;5.324;2023-12-28T10:22:29;20.42;;;2.58;;
57055;SDS011;42945;51.718;5.324;2023-12-28T10:24:55;20.90;;;3.03;;
57055;SDS011;42945;51.718;5.324;2023-12-28T10:27:20;14.20;;;1.85;;
57055;SDS011;42945;51.718;5.324;2023-12-28T10:29:46;13.93;;;2.08;;
57055;SDS011;42945;51.718;5.324;2023-12-28T10:32:11;13.40;;;1.90;;
57055;SDS011;42945;51.718;5.324;2023-12-28T10:34:37;24.48;;;3.33;;
57055;SDS011;42945;51.718;5.324;2023-12-28T10:37:02;15.52;;;2.30;;
57055;SDS011;42945;51.718;5.324;2023-12-28T10:39:30;20.48;;;2.50;;
57055;SDS011;42945;51.718;5.324;2023-12-28T10:41:58;16.50;;;1.98;;
57055;SDS011;42945;51.718;5.324;2023-12-28T10:44:28;21.58;;;2.83;;
57055;SDS011;42945;51.718;5.324;2023-12-28T10:46:59;17.33;;;2.75;;
57055;SDS011;42945;51.718;5.324;2023-12-28T10:49:27;25.65;;;3.28;;
57055;SDS011;42945;51.718;5.324;2023-12-28T10:51:55;17.45;;;2.35;;
57055;SDS011;42945;51.718;5.324;2023-12-28T10:57:14;22.65;;;3.55;;
57055;SDS011;42945;51.718;5.324;2023-12-28T11:00:09;19.27;;;2.97;;
57055;SDS011;42945;51.718;5.324;2023-12-28T11:02:56;15.70;;;2.35;;
57055;SDS011;42945;51.718;5.324;2023-12-28T11:05:27;21.20;;;2.28;;
57055;SDS011;42945;51.718;5.324;2023-12-28T11:07:55;14.93;;;2.20;;
57055;SDS011;42945;51.718;5.324;2023-12-28T11:10:23;15.23;;;2.28;;
57055;SDS011;42945;51.718;5.324;2023-12-28T11:12:53;14.95;;;2.20;;
57055;SDS011;42945;51.718;5.324;2023-12-28T11:15:18;15.65;;;2.97;;
57055;SDS011;42945;51.718;5.324;2023-12-28T11:17:44;19.42;;;2.70;;
57055;SDS011;42945;51.718;5.324;2023-12-28T11:20:10;19.67;;;2.47;;
57055;SDS011;42945;51.718;5.324;2023-12-28T11:22:36;24.50;;;2.50;;
57055;SDS011;42945;51.718;5.324;2023-12-28T11:25:03;23.23;;;3.13;;
57055;SDS011;42945;51.718;5.324;2023-12-28T11:27:36;14.40;;;2.20;;
57055;SDS011;42945;51.718;5.324;2023-12-28T11:30:03;14.95;;;2.72;;
57055;SDS011;42945;51.718;5.324;2023-12-28T11:32:32;20.20;;;2.92;;
57055;SDS011;42945;51.718;5.324;2023-12-28T11:35:01;17.50;;;2.30;;
57055;SDS011;42945;51.718;5.324;2023-12-28T11:37:26;18.25;;;2.83;;
57055;SDS011;42945;51.718;5.324;2023-12-28T11:39:54;17.30;;;2.30;;
57055;SDS011;42945;51.718;5.324;2023-12-28T11:42:22;25.23;;;2.53;;
57055;SDS011;42945;51.718;5.324;2023-12-28T11:44:48;26.25;;;4.65;;
57055;SDS011;42945;51.718;5.324;2023-12-28T11:47:22;19.55;;;3.03;;
57055;SDS011;42945;51.718;5.324;2023-12-28T11:49:49;23.05;;;2.95;;
57055;SDS011;42945;51.718;5.324;2023-12-28T11:52:27;16.58;;;2.70;;
57055;SDS011;42945;51.718;5.324;2023-12-28T11:54:54;17.08;;;2.72;;
57055;SDS011;42945;51.718;5.324;2023-12-28T11:57:19;27.40;;;3.22;;
57055;SDS011;42945;51.718;5.324;2023-12-28T11:59:45;19.50;;;2.85;;
57055;SDS011;42945;51.718;5.324;2023-12-28T12:02:10;22.10;;;2.67;;
57055;SDS011;42945;51.718;5.324;2023-12-28T12:04:36;16.77;;;2.50;;
57055;SDS011;42945;51.718;5.324;2023-12-28T12:07:02;21.63;;;3.05;;
57055;SDS011;42945;51.718;5.324;2023-12-28T12:09:28;23.38;;;2.95;;
57055;SDS011;42945;51.718;5.324;2023-12-28T12:11:59;20.02;;;2.80;;
57055;SDS011;42945;51.718;5.324;2023-12-28T12:14:25;20.85;;;2.97;;
57055;SDS011;42945;51.718;5.324;2023-12-28T12:16:50;17.58;;;2.45;;
57055;SDS011;42945;51.718;5.324;2023-12-28T12:19:17;14.23;;;2.42;;
57055;SDS011;42945;51.718;5.324;2023-12-28T12:21:43;24.77;;;2.83;;
57055;SDS011;42945;51.718;5.324;2023-12-28T12:24:09;23.77;;;2.83;;
57055;SDS011;42945;51.718;5.324;2023-12-28T12:26:35;16.73;;;2.55;;
57055;SDS011;42945;51.718;5.324;2023-12-28T12:29:01;18.83;;;2.80;;
57055;SDS011;42945;51.718;5.324;2023-12-28T12:31:27;20.33;;;2.85;;
57055;SDS011;42945;51.718;5.324;2023-12-28T12:33:53;19.00;;;2.63;;
57055;SDS011;42945;51.718;5.324;2023-12-28T12:36:19;15.90;;;2.40;;
57055;SDS011;42945;51.718;5.324;2023-12-28T12:38:46;15.65;;;2.83;;
57055;SDS011;42945;51.718;5.324;2023-12-28T12:41:14;24.33;;;3.03;;
57055;SDS011;42945;51.718;5.324;2023-12-28T12:43:40;18.00;;;2.15;;
57055;SDS011;42945;51.718;5.324;2023-12-28T12:46:06;16.15;;;2.30;;
57055;SDS011;42945;51.718;5.324;2023-12-28T12:48:31;15.63;;;2.38;;
57055;SDS011;42945;51.718;5.324;2023-12-28T12:50:57;25.60;;;2.45;;
57055;SDS011;42945;51.718;5.324;2023-12-28T12:53:25;17.15;;;2.20;;
57055;SDS011;42945;51.718;5.324;2023-12-28T12:55:57;19.42;;;2.50;;
57055;SDS011;42945;51.718;5.324;2023-12-28T12:58:23;22.20;;;2.70;;
57055;SDS011;42945;51.718;5.324;2023-12-28T13:00:48;20.05;;;2.63;;
57055;SDS011;42945;51.718;5.324;2023-12-28T13:03:14;17.95;;;2.60;;
57055;SDS011;42945;51.718;5.324;2023-12-28T13:05:39;20.42;;;3.03;;
57055;SDS011;42945;51.718;5.324;2023-12-28T13:08:09;18.95;;;2.67;;
57055;SDS011;42945;51.718;5.324;2023-12-28T13:10:34;14.73;;;2.33;;
57055;SDS011;42945;51.718;5.324;2023-12-28T13:12:59;16.27;;;2.65;;
57055;SDS011;42945;51.718;5.324;2023-12-28T13:15:26;15.48;;;2.63;;
57055;SDS011;42945;51.718;5.324;2023-12-28T13:17:51;17.27;;;2.60;;
57055;SDS011;42945;51.718;5.324;2023-12-28T13:20:16;17.33;;;2.88;;
57055;SDS011;42945;51.718;5.324;2023-12-28T13:22:42;21.58;;;2.88;;
57055;SDS011;42945;51.718;5.324;2023-12-28T13:25:07;14.45;;;2.10;;
57055;SDS011;42945;51.718;5.324;2023-12-28T13:27:32;13.75;;;2.08;;
57055;SDS011;42945;51.718;5.324;2023-12-28T13:29:58;23.05;;;3.70;;
57055;SDS011;42945;51.718;5.324;2023-12-28T13:32:24;20.80;;;2.38;;
57055;SDS011;42945;51.718;5.324;2023-12-28T13:34:49;19.10;;;3.35;;
57055;SDS011;42945;51.718;5.324;2023-12-28T13:37:18;18.67;;;2.50;;
57055;SDS011;42945;51.718;5.324;2023-12-28T13:39:43;18.20;;;2.47;;
57055;SDS011;42945;51.718;5.324;2023-12-28T13:42:09;22.33;;;2.88;;
57055;SDS011;42945;51.718;5.324;2023-12-28T13:44:34;20.60;;;2.70;;
57055;SDS011;42945;51.718;5.324;2023-12-28T13:47:00;22.45;;;3.08;;
57055;SDS011;42945;51.718;5.324;2023-12-28T13:49:30;28.85;;;3.10;;
57055;SDS011;42945;51.718;5.324;2023-12-28T13:51:56;17.05;;;3.47;;
57055;SDS011;42945;51.718;5.324;2023-12-28T13:54:22;19.10;;;2.75;;
57055;SDS011;42945;51.718;5.324;2023-12-28T13:56:48;26.05;;;3.15;;
57055;SDS011;42945;51.718;5.324;2023-12-28T13:59:13;17.33;;;2.60;;
57055;SDS011;42945;51.718;5.324;2023-12-28T14:01:39;20.50;;;3.15;;
57055;SDS011;42945;51.718;5.324;2023-12-28T14:04:05;26.63;;;3.00;;
57055;SDS011;42945;51.718;5.324;2023-12-28T14:06:31;17.48;;;3.47;;
57055;SDS011;42945;51.718;5.324;2023-12-28T14:08:56;17.73;;;2.47;;
57055;SDS011;42945;51.718;5.324;2023-12-28T14:11:22;27.60;;;2.88;;
57055;SDS011;42945;51.718;5.324;2023-12-28T14:13:51;21.50;;;2.97;;
57055;SDS011;42945;51.718;5.324;2023-12-28T14:16:16;19.30;;;2.90;;
57055;SDS011;42945;51.718;5.324;2023-12-28T14:18:41;19.40;;;2.80;;
57055;SDS011;42945;51.718;5.324;2023-12-28T14:21:10;15.70;;;2.75;;
57055;SDS011;42945;51.718;5.324;2023-12-28T14:23:37;17.35;;;2.80;;
57055;SDS011;42945;51.718;5.324;2023-12-28T14:26:04;23.13;;;2.95;;
57055;SDS011;42945;51.718;5.324;2023-12-28T14:28:38;17.77;;;3.08;;
57055;SDS011;42945;51.718;5.324;2023-12-28T14:31:03;19.80;;;2.83;;
57055;SDS011;42945;51.718;5.324;2023-12-28T14:33:30;14.82;;;2.60;;
57055;SDS011;42945;51.718;5.324;2023-12-28T14:35:56;14.70;;;2.42;;
57055;SDS011;42945;51.718;5.324;2023-12-28T14:38:22;25.33;;;2.95;;
57055;SDS011;42945;51.718;5.324;2023-12-28T14:40:47;21.35;;;2.40;;